Yreka, CA

8:09 AM PST on February 27, 2015 (GMT -0800)
Rogue Valley International-Medford | Change Station
CLOSE
Current Station
Airport
Location: Medford,
Elevation: 1329 ft
Nearby Weather Stations

Elev 1329 ft 42.38 °N, 122.87 °W | Updated 16 minutes ago

Overcast
Overcast
44 °F
Feels Like 42 °F
N
4
Wind Variable Wind from South

Today
High -- | Low -- °F
--% Chance of Precip.
Yesterday
High -- | Low -- °F
Precip. -- in
6:48 AM 5:58 PM
Waxing Gibbous, 69% visible
Pressure 29.83 in
Visibility 4.0 miles
Clouds Mostly Cloudy 300 ft
Overcast 1100 ft
Windchill 42 °F
Dew Point 42 °F
Humidity 93%
Rainfall 0.01 in
Snow Depth Not available.
UV 0 out of 12
Pollen 1.30 out of 12
Air Quality Not available.
Flu Activity Not available.
METAR KMFR 271553Z 19003KT 4SM BR BKN003 OVC011 07/06 A2982 RMK AO2 SLP100 T00670056

More Conditions Fewer Conditions

Pressure 29.83 in
Visibility 4.0 miles
Clouds Mostly Cloudy 300 ft
Overcast 1100 ft
Windchill 42 °F
Dew Point 42 °F
Humidity 93%
Rainfall 0.01 in
Snow Depth Not available.
UV 0 out of 12
Pollen 1.30 out of 12
Air Quality Not available.
Flu Activity Not available.
METAR KMFR 271553Z 19003KT 4SM BR BKN003 OVC011 07/06 A2982 RMK AO2 SLP100 T00670056

More Conditions Fewer Conditions

10-Day Weather Forecast

Almanac

Astronomy

Feb. 27, 2015 Rise Set
Actual Time
Civil Twilight
Nautical Twilight
Astronomical Twilight
Moon
Length of Visible Light
Length of Day
Tomorrow will be .
, % of the Moon is Illuminated

Today's Extremes

State Highs State Lows

Community

WunderPhotos

Upload Photos

1,800,724 photos uploaded!

WunderBlogs® & News

Nearby

Air Quality

  Air Quality AQ Index Pollutant
Not available.

Snow Depth

Station Depth Elevation

Earthquake Activity

City Distance Mag. Time & Date
Minimum magnitude displayed is 2.5.

Coastal Water Temperatures

Place Temperature

Nearby Weather Stations